Bushland, Texas
Current Conditions -  °F | °C
As of 3:53 AM on Monday 26 Jan 2015 (Local Time) from KAMA Reporting Station
Clear Clear  
Wind Chill: 31°   Ceiling: Unl
Heat Index: 38°   Visibility: 10mi
Dew Point: 31°   Wind: 10mph
Humidity: 76%   Direction: 290°WNW
Pressure: 30.25"   Gusts: NA
Location:  35.19°N, 102.07°W
Report Text: KAMA 260953Z AUTO 29009KT 10SM CLR 03/M01 A3025 RMK AO2 SLP235 T00331006
Loading
Personal Weather Stations






























Interactive Weather Map New forecast layout! Learn more

10-Day Weather Forecast

Advertisements
Track Severe Weather on mobile